createdAt,value
2019-06-26T00:01:10.176Z,13.20
2019-06-26T00:07:12.428Z,13.58
2019-06-26T00:13:25.795Z,13.48
2019-06-26T00:19:18.699Z,12.33
2019-06-26T00:25:21.157Z,14.38
2019-06-26T00:31:23.499Z,13.05
2019-06-26T00:37:25.683Z,13.45
2019-06-26T00:43:41.499Z,12.53
2019-06-26T00:49:32.819Z,13.18
2019-06-26T00:55:35.011Z,13.20
2019-06-26T01:01:37.305Z,13.20
2019-06-26T01:07:39.720Z,13.32
2019-06-26T01:13:57.100Z,12.82
2019-06-26T01:19:46.192Z,12.60
2019-06-26T01:25:48.367Z,13.65
2019-06-26T01:31:50.697Z,13.30
2019-06-26T01:37:52.844Z,13.38
2019-06-26T01:43:55.341Z,14.90
2019-06-26T01:49:57.528Z,14.25
2019-06-26T01:55:59.681Z,13.30
2019-06-26T02:02:01.805Z,12.95
2019-06-26T02:08:03.989Z,13.10
2019-06-26T02:14:06.648Z,12.90
2019-06-26T02:20:09.219Z,15.58
2019-06-26T02:26:11.611Z,13.85
2019-06-26T02:32:13.880Z,14.13
2019-06-26T02:38:16.175Z,13.55
2019-06-26T02:44:18.428Z,14.20
2019-06-26T02:50:22.878Z,14.83
2019-06-26T02:56:25.009Z,14.47
2019-06-26T03:02:27.324Z,14.55
2019-06-26T03:08:29.475Z,14.93
2019-06-26T03:14:31.685Z,14.55
2019-06-26T03:20:38.339Z,15.93
2019-06-26T03:26:40.527Z,14.68
2019-06-26T03:32:42.786Z,15.75
2019-06-26T03:38:44.955Z,14.55
2019-06-26T03:44:47.197Z,14.05
2019-06-26T03:50:50.207Z,13.48
2019-06-26T03:56:52.481Z,13.25
2019-06-26T04:02:54.682Z,12.37
2019-06-26T04:08:56.957Z,11.03
2019-06-26T04:14:59.226Z,11.57
2019-06-26T04:21:01.514Z,10.40
2019-06-26T04:27:03.736Z,10.70
2019-06-26T04:33:05.926Z,11.83
2019-06-26T04:39:08.085Z,9.55
2019-06-26T04:45:10.930Z,10.03
2019-06-26T04:51:13.121Z,9.30
2019-06-26T04:57:16.179Z,9.30
2019-06-26T05:03:18.367Z,9.03
2019-06-26T05:09:20.766Z,9.18
2019-06-26T05:15:22.931Z,9.83
2019-06-26T05:21:25.402Z,9.23
2019-06-26T05:27:27.575Z,9.33
2019-06-26T05:33:29.771Z,10.10
2019-06-26T05:39:31.905Z,9.63
2019-06-26T05:45:34.404Z,8.78
2019-06-26T05:51:36.656Z,9.83
2019-06-26T05:57:41.789Z,8.90
2019-06-26T06:03:44.555Z,8.43
2019-06-26T06:09:46.748Z,8.55
2019-06-26T06:15:48.889Z,9.58
2019-06-26T06:21:51.268Z,9.10
2019-06-26T06:27:53.453Z,8.40
2019-06-26T06:33:55.900Z,9.58
2019-06-26T06:39:58.229Z,9.38
2019-06-26T06:46:00.475Z,10.03
2019-06-26T06:52:02.769Z,10.63
2019-06-26T06:58:04.923Z,9.00
2019-06-26T07:04:07.110Z,9.68
2019-06-26T07:10:13.586Z,9.58
2019-06-26T07:16:16.044Z,10.90
2019-06-26T07:22:18.386Z,10.70
2019-06-26T07:28:20.476Z,9.98
2019-06-26T07:34:22.730Z,10.35
2019-06-26T07:40:25.085Z,10.38
2019-06-26T07:46:27.269Z,10.38
2019-06-26T07:52:29.497Z,11.33
2019-06-26T07:58:31.696Z,10.32
2019-06-26T08:04:33.867Z,12.28
2019-06-26T08:10:36.336Z,11.57
2019-06-26T08:16:38.542Z,11.78
2019-06-26T08:22:40.691Z,12.07
2019-06-26T08:28:42.890Z,12.20
2019-06-26T08:34:45.207Z,9.90
2019-06-26T08:40:47.437Z,10.38
2019-06-26T08:46:49.712Z,10.38
2019-06-26T08:52:51.978Z,9.93
2019-06-26T08:58:54.168Z,9.65
2019-06-26T09:04:56.663Z,10.13
2019-06-26T09:10:58.833Z,11.50
2019-06-26T09:17:01.273Z,11.25
2019-06-26T09:23:03.865Z,9.75
2019-06-26T09:29:06.091Z,9.70
2019-06-26T09:35:08.410Z,8.65
2019-06-26T09:41:10.542Z,8.80
2019-06-26T09:47:15.597Z,9.45
2019-06-26T09:53:16.866Z,9.63
2019-06-26T09:59:19.050Z,8.88
2019-06-26T10:05:21.857Z,8.30
2019-06-26T10:11:24.036Z,8.80
2019-06-26T10:17:26.263Z,8.78
2019-06-26T10:23:28.447Z,8.78
2019-06-26T10:29:30.668Z,8.98
2019-06-26T10:35:32.987Z,9.73
2019-06-26T10:41:35.136Z,9.60
2019-06-26T10:47:39.627Z,10.32
2019-06-26T10:53:41.394Z,9.93
2019-06-26T10:59:43.619Z,8.98
2019-06-26T11:05:45.738Z,10.45
2019-06-26T11:11:47.996Z,11.35
2019-06-26T11:17:50.140Z,10.00
2019-06-26T11:23:52.367Z,9.85
2019-06-26T11:29:54.584Z,10.25
2019-06-26T11:35:56.757Z,10.23
2019-06-26T11:41:59.117Z,10.58
2019-06-26T11:48:01.312Z,9.75
2019-06-26T11:54:03.703Z,9.15
2019-06-26T12:00:08.046Z,8.93
2019-06-26T12:06:18.221Z,9.88
2019-06-26T12:12:14.080Z,8.63
2019-06-26T12:18:16.477Z,9.28
2019-06-26T12:24:18.628Z,8.18
2019-06-26T12:30:21.517Z,7.15
2019-06-26T12:36:23.747Z,7.35
2019-06-26T12:42:25.955Z,6.22
2019-06-26T12:48:28.214Z,6.83
2019-06-26T12:54:30.398Z,5.60
2019-06-26T13:00:32.711Z,6.17
2019-06-26T13:06:35.179Z,6.20
2019-06-26T13:12:37.410Z,6.10
2019-06-26T13:18:39.566Z,5.25
2019-06-26T13:24:44.120Z,4.70
2019-06-26T13:30:45.790Z,4.85
2019-06-26T13:36:48.008Z,4.33
2019-06-26T13:42:50.168Z,3.40
2019-06-26T13:48:52.831Z,2.60
2019-06-26T13:54:57.277Z,2.65
2019-06-26T14:00:58.952Z,2.83
2019-06-26T14:07:01.121Z,2.17
2019-06-26T14:13:03.329Z,2.60
2019-06-26T14:19:05.535Z,2.00
2019-06-26T14:25:07.775Z,1.80
2019-06-26T14:31:10.071Z,2.08
2019-06-26T14:37:12.269Z,1.80
2019-06-26T14:43:14.543Z,1.82
2019-06-26T14:49:16.702Z,1.70
2019-06-26T14:55:19.016Z,2.17
2019-06-26T15:01:21.354Z,2.15
2019-06-26T15:07:23.487Z,2.20
2019-06-26T15:13:25.818Z,2.75
2019-06-26T15:19:28.018Z,2.87
2019-06-26T15:25:30.264Z,3.30
2019-06-26T15:31:32.565Z,3.20
2019-06-26T15:37:34.777Z,3.33
2019-06-26T15:43:37.176Z,3.25
2019-06-26T15:49:39.374Z,3.62
2019-06-26T15:55:41.595Z,4.35
2019-06-26T16:01:44.092Z,4.05
2019-06-26T16:07:46.318Z,3.52
2019-06-26T16:13:48.491Z,2.95
2019-06-26T16:19:50.716Z,2.30
2019-06-26T16:25:52.968Z,2.12
2019-06-26T16:31:55.310Z,2.10
2019-06-26T16:37:57.472Z,2.10
2019-06-26T16:43:59.844Z,2.08
2019-06-26T16:50:02.094Z,2.30
2019-06-26T16:56:04.283Z,2.42
2019-06-26T17:02:07.237Z,2.58
2019-06-26T17:08:09.484Z,3.02
2019-06-26T17:14:11.648Z,2.90
2019-06-26T17:20:14.603Z,3.00
2019-06-26T17:26:16.759Z,3.45
2019-06-26T17:32:19.079Z,3.72
2019-06-26T17:38:21.639Z,3.65
2019-06-26T17:44:23.771Z,3.80
2019-06-26T17:50:25.912Z,3.87
2019-06-26T17:56:28.074Z,3.62
2019-06-26T18:02:30.254Z,4.33
2019-06-26T18:08:32.470Z,3.87
2019-06-26T18:14:34.997Z,4.28
2019-06-26T18:20:37.305Z,5.28
2019-06-26T18:26:40.363Z,4.72
2019-06-26T18:32:42.716Z,4.90
2019-06-26T18:38:44.921Z,5.45
2019-06-26T18:44:47.214Z,5.78
2019-06-26T18:50:49.392Z,5.42
2019-06-26T18:56:51.741Z,6.30
2019-06-26T19:02:54.043Z,6.15
2019-06-26T19:08:56.375Z,5.58
2019-06-26T19:14:58.576Z,5.65
2019-06-26T19:21:00.740Z,5.42
2019-06-26T19:27:06.585Z,7.85
2019-06-26T19:33:07.067Z,7.50
2019-06-26T19:39:09.312Z,6.55
2019-06-26T19:45:12.095Z,7.15
2019-06-26T19:51:14.449Z,6.72
2019-06-26T19:57:16.621Z,5.47
2019-06-26T20:03:19.358Z,5.30
2019-06-26T20:09:21.469Z,5.00
2019-06-26T20:15:23.774Z,5.78
2019-06-26T20:21:25.879Z,5.12
2019-06-26T20:27:28.080Z,5.60
2019-06-26T20:33:30.454Z,5.47
2019-06-26T20:39:32.627Z,5.35
2019-06-26T20:45:34.820Z,5.28
2019-06-26T20:51:36.996Z,7.22
2019-06-26T20:57:39.185Z,6.17
2019-06-26T21:03:41.776Z,6.15
2019-06-26T21:09:44.006Z,6.53
2019-06-26T21:15:46.501Z,5.65
2019-06-26T21:21:48.698Z,6.08
2019-06-26T21:27:50.963Z,7.70
2019-06-26T21:33:53.139Z,8.85
2019-06-26T21:39:55.308Z,8.30
2019-06-26T21:45:57.562Z,7.78
2019-06-26T21:51:59.727Z,8.10
2019-06-26T21:58:02.233Z,7.67
2019-06-26T22:04:05.625Z,7.87
2019-06-26T22:10:08.375Z,8.45
2019-06-26T22:16:10.793Z,7.83
2019-06-26T22:22:13.068Z,7.97
2019-06-26T22:28:15.436Z,8.10
2019-06-26T22:34:17.591Z,8.43
2019-06-26T22:40:19.811Z,8.28
2019-06-26T22:46:22.167Z,8.80
2019-06-26T22:52:24.498Z,7.90
2019-06-26T22:58:26.882Z,8.85
2019-06-26T23:04:29.215Z,8.73
2019-06-26T23:10:31.440Z,9.08
2019-06-26T23:16:33.639Z,9.33
2019-06-26T23:22:35.893Z,9.40
2019-06-26T23:28:38.051Z,9.25
2019-06-26T23:34:40.241Z,9.55
2019-06-26T23:40:42.385Z,9.45
2019-06-26T23:46:44.687Z,10.82
2019-06-26T23:52:46.838Z,10.32
2019-06-26T23:58:49.189Z,10.60
